Time;durP1;ratioP1;P1;durP2;ratioP2;P2;SDS_P1;SDS_P2;PMS_P1;PMS_P2;Temp;Humidity;BMP_temperature;BMP_pressure;BME280_temperature;BME280_humidity;BME280_pressure;Samples;Min_cycle;Max_cycle;Signal;HPM_P1;HPM_P2
2021/11/06 00:02:04;;;;;;;3.1;2.4;;;;;;;2.83;86.20215;948.079;;;;
2021/11/06 00:04:30;;;;;;;4.5;2.2;;;;;;;2.8;86.39844;948.2659;;;;
2021/11/06 00:06:56;;;;;;;3.6;2.4;;;;;;;2.73;86.57617;948.216;;;;
2021/11/06 00:09:23;;;;;;;3;2.5;;;;;;;2.65;86.82813;948.2141;;;;
2021/11/06 00:14:15;;;;;;;3.3;1.9;;;;;;;2.73;86.59863;948.2481;;;;
2021/11/06 00:16:40;;;;;;;3.1;1.9;;;;;;;2.68;86.77734;948.1989;;;;
2021/11/06 00:19:06;;;;;;;3.1;2.4;;;;;;;2.65;86.77246;948.2342;;;;
2021/11/06 00:21:31;;;;;;;2.6;1.8;;;;;;;2.64;86.98145;948.2816;;;;
2021/11/06 00:23:56;;;;;;;2.5;2;;;;;;;2.59;86.95117;948.2633;;;;
2021/11/06 00:26:49;;;;;;;2.3;2;;;;;;;2.55;86.88672;948.2255;;;;
2021/11/06 00:29:13;;;;;;;2.4;2.2;;;;;;;2.49;87.23242;948.296;;;;
2021/11/06 00:31:38;;;;;;;3.3;2.4;;;;;;;2.41;87.01563;948.3845;;;;
2021/11/06 00:34:05;;;;;;;2.7;2.1;;;;;;;2.4;88.11133;948.4342;;;;
2021/11/06 00:36:29;;;;;;;3.1;2.3;;;;;;;2.47;88.0127;948.4043;;;;
2021/11/06 00:38:54;;;;;;;3.1;2.5;;;;;;;2.31;87.88965;948.459;;;;
2021/11/06 00:41:22;;;;;;;3;2.6;;;;;;;2.12;89.01465;948.394;;;;
2021/11/06 00:43:49;;;;;;;3.2;2.3;;;;;;;2.16;88.85547;948.4324;;;;
2021/11/06 00:46:14;;;;;;;2.6;2.3;;;;;;;2.15;88.89844;948.3998;;;;
2021/11/06 00:48:41;;;;;;;3;2.3;;;;;;;2.09;89.04199;948.408;;;;
2021/11/06 00:51:07;;;;;;;2.4;1.9;;;;;;;1.93;88.99902;948.3837;;;;
2021/11/06 00:53:31;;;;;;;3;1.9;;;;;;;1.9;89.61816;948.4122;;;;
2021/11/06 00:55:56;;;;;;;2.1;1.9;;;;;;;1.9;89.56152;948.3714;;;;
2021/11/06 00:58:21;;;;;;;2.8;2;;;;;;;1.9;88.96875;948.3959;;;;
2021/11/06 01:00:46;;;;;;;2.5;2.2;;;;;;;1.92;89.00586;948.3547;;;;
2021/11/06 01:03:12;;;;;;;2.3;2.1;;;;;;;1.74;90.2002;948.4344;;;;
2021/11/06 01:05:37;;;;;;;2.5;2.1;;;;;;;1.76;89.82422;948.4639;;;;
2021/11/06 01:08:03;;;;;;;3.1;2.3;;;;;;;1.75;89.82227;948.421;;;;
2021/11/06 01:10:29;;;;;;;2.7;2.2;;;;;;;1.55;90.69531;948.4988;;;;
2021/11/06 01:12:54;;;;;;;3.4;2.6;;;;;;;1.61;90.82227;948.5014;;;;
2021/11/06 01:15:20;;;;;;;4.3;3.3;;;;;;;1.53;91.19629;948.5082;;;;
2021/11/06 01:17:47;;;;;;;10.1;4;;;;;;;1.58;90.98047;948.4771;;;;
2021/11/06 01:20:12;;;;;;;5.5;3.2;;;;;;;1.49;91.29785;948.4933;;;;
2021/11/06 01:22:38;;;;;;;4.2;3;;;;;;;1.46;92.51074;948.4615;;;;
2021/11/06 01:25:03;;;;;;;3.5;2.8;;;;;;;1.62;91.91797;948.577;;;;
2021/11/06 01:27:29;;;;;;;3.6;2.6;;;;;;;1.65;91.54395;948.6049;;;;
2021/11/06 01:29:55;;;;;;;5.2;2.9;;;;;;;1.7;90.75977;948.6522;;;;
2021/11/06 01:32:20;;;;;;;3.9;2.7;;;;;;;1.7;90.58203;948.6032;;;;
2021/11/06 01:34:45;;;;;;;3.6;2.9;;;;;;;1.78;89.98438;948.5059;;;;
2021/11/06 01:40:24;;;;;;;2.9;2.4;;;;;;;1.45;91.25488;948.6044;;;;
2021/11/06 01:42:49;;;;;;;3.4;2.6;;;;;;;1.52;91.23535;948.6163;;;;
2021/11/06 01:45:14;;;;;;;4.2;2.6;;;;;;;1.5;91.15332;948.5978;;;;
2021/11/06 01:47:39;;;;;;;3.9;2.7;;;;;;;1.43;91.35156;948.5652;;;;
2021/11/06 01:50:06;;;;;;;3.8;2.4;;;;;;;1.4;91.30078;948.4913;;;;
2021/11/06 01:52:31;;;;;;;3.8;2.8;;;;;;;1.48;90.96094;948.4383;;;;
2021/11/06 01:54:57;;;;;;;2.6;2.4;;;;;;;1.56;90.44141;948.4459;;;;
2021/11/06 01:57:22;;;;;;;4.7;2.4;;;;;;;1.62;90.13965;948.5369;;;;
2021/11/06 01:59:48;;;;;;;2.8;2.4;;;;;;;1.64;89.75293;948.5676;;;;
2021/11/06 02:02:13;;;;;;;3.6;2.7;;;;;;;1.46;90.26367;948.5978;;;;
2021/11/06 02:04:38;;;;;;;3.4;2.7;;;;;;;1.34;91.39941;948.5667;;;;
2021/11/06 02:07:29;;;;;;;4.4;2.8;;;;;;;1.45;90.94238;948.5212;;;;
2021/11/06 02:09:55;;;;;;;3.9;2.7;;;;;;;1.48;90.6123;948.45;;;;
2021/11/06 02:12:20;;;;;;;4;2.7;;;;;;;1.5;90.37012;948.5359;;;;
2021/11/06 02:14:47;;;;;;;3.9;2.6;;;;;;;1.3;90.9668;948.4656;;;;
2021/11/06 02:17:12;;;;;;;4.1;3.1;;;;;;;1.27;91.5957;948.4724;;;;
2021/11/06 02:19:39;;;;;;;4.5;2.7;;;;;;;1.32;91.25;948.4246;;;;
2021/11/06 02:22:04;;;;;;;4.4;3;;;;;;;1.29;90.90723;948.3395;;;;
2021/11/06 02:27:23;;;;;;;3.3;2.8;;;;;;;1.41;90.36426;948.4366;;;;
2021/11/06 02:29:49;;;;;;;2.8;2.4;;;;;;;1.46;89.79492;948.3791;;;;
2021/11/06 02:32:15;;;;;;;4.2;2.4;;;;;;;1.47;89.43652;948.3953;;;;
2021/11/06 02:34:40;;;;;;;3.6;2.4;;;;;;;1.27;90.88086;948.4183;;;;
2021/11/06 02:37:05;;;;;;;3.3;2.5;;;;;;;1.26;91.00195;948.4344;;;;
2021/11/06 02:39:30;;;;;;;4.4;2.7;;;;;;;1.31;90.52148;948.3988;;;;
2021/11/06 02:41:55;;;;;;;3.4;2.6;;;;;;;1.24;90.83008;948.4017;;;;
2021/11/06 02:44:20;;;;;;;3.8;2.9;;;;;;;1.11;91.0918;948.3894;;;;
2021/11/06 02:46:45;;;;;;;4.1;3;;;;;;;1.03;91.7793;948.4124;;;;
2021/11/06 02:49:10;;;;;;;3;2.5;;;;;;;1;91.84961;948.3635;;;;
2021/11/06 02:51:35;;;;;;;3.7;2.3;;;;;;;0.92;92.31445;948.3848;;;;
2021/11/06 02:54:01;;;;;;;4.4;2.7;;;;;;;0.96;92.38867;948.3497;;;;
2021/11/06 02:56:26;;;;;;;4;2.4;;;;;;;0.86;92.14258;948.3801;;;;
2021/11/06 02:58:52;;;;;;;2.8;2.1;;;;;;;0.9;92.21875;948.424;;;;
2021/11/06 03:01:17;;;;;;;3.1;2.5;;;;;;;0.83;92.02441;948.397;;;;
2021/11/06 03:03:43;;;;;;;3.2;2.4;;;;;;;0.61;93.27148;948.4364;;;;
2021/11/06 03:06:15;;;;;;;3.2;2.4;;;;;;;0.68;93.64258;948.3856;;;;
2021/11/06 03:08:41;;;;;;;2.6;2.3;;;;;;;0.71;93.19336;948.4214;;;;
2021/11/06 03:11:06;;;;;;;3.1;2.7;;;;;;;0.74;92.89746;948.4741;;;;
2021/11/06 03:13:33;;;;;;;3.5;2.9;;;;;;;0.76;92.95898;948.5143;;;;
2021/11/06 03:15:58;;;;;;;4.5;2.6;;;;;;;0.83;92.85059;948.5231;;;;
2021/11/06 03:18:24;;;;;;;2.8;2.5;;;;;;;0.76;92.97949;948.5584;;;;
2021/11/06 03:20:50;;;;;;;3.5;2.8;;;;;;;0.69;92.97949;948.5725;;;;
2021/11/06 03:23:16;;;;;;;3.8;2.9;;;;;;;0.61;93.22656;948.5988;;;;
2021/11/06 03:25:41;;;;;;;5.3;3.3;;;;;;;0.52;94.13281;948.5814;;;;
2021/11/06 03:28:07;;;;;;;7.6;3;;;;;;;0.59;94.30469;948.5984;;;;
2021/11/06 03:30:31;;;;;;;4.9;3.1;;;;;;;0.66;93.88379;948.644;;;;
2021/11/06 03:32:56;;;;;;;5.2;3.4;;;;;;;0.72;93.55176;948.6164;;;;
2021/11/06 03:35:22;;;;;;;5;2.7;;;;;;;0.73;93.21973;948.5848;;;;
2021/11/06 03:37:47;;;;;;;4.8;3;;;;;;;0.65;93.19043;948.5535;;;;
2021/11/06 03:40:14;;;;;;;4.8;2.8;;;;;;;0.59;93.54688;948.5361;;;;
2021/11/06 03:42:40;;;;;;;3.6;2.5;;;;;;;0.65;94.06055;948.4725;;;;
2021/11/06 03:45:05;;;;;;;4.3;2.9;;;;;;;0.79;93.23145;948.5563;;;;
2021/11/06 03:47:29;;;;;;;6.6;3;;;;;;;0.9;92.59863;948.5134;;;;
2021/11/06 03:49:57;;;;;;;8;3.6;;;;;;;0.81;92.28906;948.562;;;;
2021/11/06 03:52:22;;;;;;;5.6;3.5;;;;;;;0.71;92.74512;948.5349;;;;
2021/11/06 03:54:48;;;;;;;4.8;2.9;;;;;;;0.7;92.84473;948.5681;;;;
2021/11/06 03:57:13;;;;;;;5.2;2.8;;;;;;;0.55;93.16797;948.5539;;;;
2021/11/06 03:59:38;;;;;;;4.3;3.3;;;;;;;0.55;93.31348;948.5676;;;;
2021/11/06 04:02:32;;;;;;;6.5;3.1;;;;;;;0.46;93.47363;948.5851;;;;
2021/11/06 04:04:56;;;;;;;9.2;3.9;;;;;;;0.43;93.3877;948.4882;;;;
2021/11/06 04:07:21;;;;;;;4.4;2.8;;;;;;;0.26;94.01855;948.527;;;;
2021/11/06 04:09:46;;;;;;;2.7;2.1;;;;;;;0.06;95.60059;948.4685;;;;
2021/11/06 04:12:11;;;;;;;6;3.7;;;;;;;0.07;96.88379;948.4567;;;;
2021/11/06 04:14:37;;;;;;;5.1;3.3;;;;;;;0.23;96.84375;948.5348;;;;
2021/11/06 04:17:03;;;;;;;4.5;2.9;;;;;;;0.34;96.0459;948.4996;;;;
2021/11/06 04:19:29;;;;;;;4.3;3.1;;;;;;;0.39;95.26367;948.4916;;;;
2021/11/06 04:21:53;;;;;;;5.2;2.6;;;;;;;0.45;94.51758;948.4001;;;;
2021/11/06 04:24:20;;;;;;;4.5;2.8;;;;;;;0.43;94.03613;948.3929;;;;
2021/11/06 04:26:45;;;;;;;4.5;3;;;;;;;0.51;93.63965;948.3783;;;;
2021/11/06 04:29:13;;;;;;;5.1;2.8;;;;;;;0.44;93.50098;948.293;;;;
2021/11/06 04:31:39;;;;;;;4.3;2.7;;;;;;;0.37;93.82129;948.4028;;;;
2021/11/06 04:34:05;;;;;;;3.9;2.9;;;;;;;0.42;93.94336;948.3895;;;;
2021/11/06 04:36:30;;;;;;;4.8;2.7;;;;;;;0.38;94.08008;948.3211;;;;
2021/11/06 04:38:56;;;;;;;4.1;2.7;;;;;;;0.41;94.47461;948.3276;;;;
2021/11/06 04:41:21;;;;;;;4.1;3;;;;;;;0.45;94.07422;948.3644;;;;
2021/11/06 04:43:48;;;;;;;5.1;2.9;;;;;;;0.43;93.74414;948.2992;;;;
2021/11/06 04:48:44;;;;;;;3.3;2.4;;;;;;;0.34;93.8584;948.3755;;;;
2021/11/06 04:51:10;;;;;;;3.7;2.4;;;;;;;0.34;93.93848;948.4125;;;;
2021/11/06 04:53:35;;;;;;;4;3.1;;;;;;;0.35;93.96094;948.4175;;;;
2021/11/06 04:56:00;;;;;;;3.9;3.2;;;;;;;0.29;94.29395;948.3976;;;;
2021/11/06 04:58:27;;;;;;;3.9;2.8;;;;;;;0.27;93.99805;948.3619;;;;
2021/11/06 05:00:52;;;;;;;5.6;3.2;;;;;;;0.29;94.56152;948.3629;;;;
2021/11/06 05:03:17;;;;;;;3.2;2.6;;;;;;;0.27;94.77832;948.4227;;;;
2021/11/06 05:05:42;;;;;;;7;3.5;;;;;;;0.33;95.44824;948.3865;;;;
2021/11/06 05:08:07;;;;;;;6.1;3.8;;;;;;;0.36;94.89941;948.3038;;;;
2021/11/06 05:11:12;;;;;;;4.8;3.4;;;;;;;0.36;94.46484;948.2866;;;;
2021/11/06 05:13:37;;;;;;;4.3;3.1;;;;;;;0.35;94.28418;948.3549;;;;
2021/11/06 05:16:02;;;;;;;7;2.9;;;;;;;0.44;93.91406;948.3024;;;;
2021/11/06 05:18:27;;;;;;;4.8;2.8;;;;;;;0.26;93.77539;948.3127;;;;
2021/11/06 05:20:52;;;;;;;4.5;2.9;;;;;;;0.21;94.19824;948.2516;;;;
2021/11/06 05:23:17;;;;;;;3.7;2.7;;;;;;;0.29;94.02637;948.2917;;;;
2021/11/06 05:25:44;;;;;;;4.4;2.9;;;;;;;0.34;93.90527;948.2903;;;;
2021/11/06 05:28:09;;;;;;;5.9;3.2;;;;;;;0.49;93.9707;948.253;;;;
2021/11/06 05:33:53;;;;;;;4.5;3.2;;;;;;;0.32;93.12988;948.3492;;;;
2021/11/06 05:36:19;;;;;;;4.4;3.3;;;;;;;0.33;93.72266;948.3188;;;;
2021/11/06 05:38:44;;;;;;;5.7;3.5;;;;;;;0.32;93.64258;948.3047;;;;
2021/11/06 05:41:09;;;;;;;4.3;3.3;;;;;;;0.41;93.00488;948.303;;;;
2021/11/06 05:43:34;;;;;;;5.5;3.3;;;;;;;0.4;92.91309;948.3189;;;;
2021/11/06 05:46:00;;;;;;;6.6;3.4;;;;;;;0.56;92.32227;948.3044;;;;
2021/11/06 05:48:25;;;;;;;7.8;3.6;;;;;;;0.6;91.79688;948.3897;;;;
2021/11/06 05:50:51;;;;;;;7;4;;;;;;;0.66;91.48535;948.3452;;;;
2021/11/06 05:53:16;;;;;;;7.4;3.6;;;;;;;0.66;91.40918;948.4255;;;;
2021/11/06 05:55:42;;;;;;;5.1;3.5;;;;;;;0.65;91.34961;948.4496;;;;
2021/11/06 05:58:08;;;;;;;7;3.9;;;;;;;0.47;91.16504;948.4732;;;;
2021/11/06 06:00:34;;;;;;;5.7;3.9;;;;;;;0.42;91.5127;948.4691;;;;
2021/11/06 06:03:00;;;;;;;6;4.1;;;;;;;0.42;91.62402;948.5036;;;;
2021/11/06 06:05:27;;;;;;;6;4.2;;;;;;;0.51;91.39844;948.5695;;;;
2021/11/06 06:07:53;;;;;;;9.5;4.4;;;;;;;0.56;90.99707;948.553;;;;
2021/11/06 06:10:17;;;;;;;8.3;5;;;;;;;0.5;90.57129;948.6409;;;;
2021/11/06 06:12:44;;;;;;;11.7;6;;;;;;;0.29;91.66309;948.6962;;;;
2021/11/06 06:15:08;;;;;;;8.7;5.2;;;;;;;0.3;92.43262;948.6738;;;;
2021/11/06 06:17:33;;;;;;;10.5;5.3;;;;;;;0.3;92.19824;948.7092;;;;
2021/11/06 06:19:59;;;;;;;6.7;4.5;;;;;;;0.23;91.66113;948.7656;;;;
2021/11/06 06:22:25;;;;;;;6;4.6;;;;;;;0.24;91.99707;948.8201;;;;
2021/11/06 06:24:53;;;;;;;6.6;4.7;;;;;;;0.39;91.30371;948.8635;;;;
2021/11/06 06:29:53;;;;;;;5.6;4.3;;;;;;;0.46;91.41992;948.8521;;;;
2021/11/06 06:32:18;;;;;;;8.2;5.6;;;;;;;0.5;91.0166;948.8716;;;;
2021/11/06 06:34:43;;;;;;;9.1;5.3;;;;;;;0.56;90.29492;948.8297;;;;
2021/11/06 06:37:08;;;;;;;10;6.6;;;;;;;0.34;90.9375;948.916;;;;
2021/11/06 06:39:34;;;;;;;12.3;6.8;;;;;;;0.36;91.21094;948.8566;;;;
2021/11/06 06:42:26;;;;;;;8.7;5.3;;;;;;;0.32;91.08984;948.8818;;;;
2021/11/06 06:44:51;;;;;;;18.8;9.1;;;;;;;0.27;91.45703;949.0336;;;;
2021/11/06 06:47:16;;;;;;;13.4;8.5;;;;;;;0.37;91.55664;949.0345;;;;
2021/11/06 06:49:41;;;;;;;10.2;7.3;;;;;;;0.66;91.12988;949.0283;;;;
2021/11/06 06:52:06;;;;;;;5.3;4.2;;;;;;;0.97;89.96582;948.9888;;;;
2021/11/06 06:54:32;;;;;;;4.7;3;;;;;;;1.27;88.73535;949.1611;;;;
2021/11/06 06:56:57;;;;;;;4.9;3.3;;;;;;;1.51;87.38965;949.1006;;;;
2021/11/06 06:59:22;;;;;;;5.8;3.4;;;;;;;1.81;86.33203;949.0887;;;;
2021/11/06 07:01:49;;;;;;;6.1;4.1;;;;;;;2.01;84.43457;949.1155;;;;
2021/11/06 07:04:14;;;;;;;7.5;3.6;;;;;;;2.01;84.87109;949.0433;;;;
2021/11/06 07:06:41;;;;;;;3.3;2.8;;;;;;;2.27;83.69336;949.1133;;;;
2021/11/06 07:09:07;;;;;;;4.2;3.2;;;;;;;2.85;81.39648;949.1439;;;;
2021/11/06 07:11:32;;;;;;;5.2;3.3;;;;;;;3.21;79.66895;949.1398;;;;
2021/11/06 07:13:57;;;;;;;4.7;4;;;;;;;3.16;79.20117;949.1873;;;;
2021/11/06 07:16:23;;;;;;;4.1;3.7;;;;;;;3.46;79.29004;949.1348;;;;
2021/11/06 07:18:47;;;;;;;4.1;3.6;;;;;;;3.49;80.49707;949.1929;;;;
2021/11/06 07:21:14;;;;;;;5.4;3.3;;;;;;;3.69;78.61328;949.2305;;;;
2021/11/06 07:23:39;;;;;;;4.3;2.9;;;;;;;3.92;75.2832;949.2556;;;;
2021/11/06 07:26:05;;;;;;;5.4;2.8;;;;;;;3.87;75.8916;949.257;;;;
2021/11/06 07:28:30;;;;;;;6;3.7;;;;;;;4.03;75.65137;949.1873;;;;
2021/11/06 07:30:56;;;;;;;7;4.7;;;;;;;4.34;75.39063;949.197;;;;
2021/11/06 07:33:21;;;;;;;10.6;6.1;;;;;;;4.18;76.88184;949.2597;;;;
2021/11/06 07:35:48;;;;;;;6.9;4.6;;;;;;;4.37;75.4082;949.3139;;;;
2021/11/06 07:38:14;;;;;;;7.6;5.3;;;;;;;4.71;74.91699;949.2447;;;;
2021/11/06 07:40:39;;;;;;;6.2;4.5;;;;;;;4.95;72.74902;949.2155;;;;
2021/11/06 07:43:04;;;;;;;7.9;4.6;;;;;;;4.93;72.16992;949.2572;;;;
2021/11/06 07:45:30;;;;;;;7.2;5;;;;;;;4.98;71.91992;949.223;;;;
2021/11/06 07:47:55;;;;;;;5.8;3.7;;;;;;;5.04;70.80176;949.1852;;;;
2021/11/06 07:50:21;;;;;;;8;3.1;;;;;;;5.69;68.28027;949.1414;;;;
2021/11/06 07:52:47;;;;;;;5.6;3.8;;;;;;;6.38;65.31445;949.1824;;;;
2021/11/06 07:55:13;;;;;;;3;2.2;;;;;;;6.77;61.80859;949.142;;;;
2021/11/06 07:57:38;;;;;;;4.6;3.3;;;;;;;6.93;62.89551;949.0959;;;;
2021/11/06 08:00:04;;;;;;;4.5;2.9;;;;;;;7.58;61.39258;949.13;;;;
2021/11/06 08:02:30;;;;;;;3.4;2.4;;;;;;;7.79;59.5625;949.1591;;;;
2021/11/06 08:04:54;;;;;;;4.9;2.7;;;;;;;7.93;58.0498;949.1271;;;;
2021/11/06 08:07:19;;;;;;;3.2;2.9;;;;;;;9.22;55.82227;949.1055;;;;
2021/11/06 08:09:45;;;;;;;4.6;2.7;;;;;;;9.93;53.18848;949.0533;;;;
2021/11/06 08:12:10;;;;;;;22.8;10.2;;;;;;;9.31;54.44434;949.1392;;;;
2021/11/06 08:14:35;;;;;;;15.5;7.1;;;;;;;9.44;55.13281;949.0522;;;;
2021/11/06 08:17:02;;;;;;;6.9;4.2;;;;;;;9.34;54.08301;949.0168;;;;
2021/11/06 08:19:26;;;;;;;3.9;2.5;;;;;;;8.01;57.80957;949.049;;;;
2021/11/06 08:21:53;;;;;;;4.9;2.2;;;;;;;7.33;60.63184;949.053;;;;
2021/11/06 08:24:18;;;;;;;2.9;2.3;;;;;;;8.1;58.15234;949.0575;;;;
2021/11/06 08:26:44;;;;;;;2.5;1.7;;;;;;;7.43;59.88574;949.0134;;;;
2021/11/06 08:29:09;;;;;;;2.4;1.9;;;;;;;6.79;60.71387;949.0488;;;;
2021/11/06 08:31:35;;;;;;;4.2;1.8;;;;;;;7.09;60.7334;949.009;;;;
2021/11/06 08:34:00;;;;;;;3;1.9;;;;;;;7.39;60.29883;948.9758;;;;
2021/11/06 08:36:26;;;;;;;2.5;1.9;;;;;;;7.5;59.24902;948.9383;;;;
2021/11/06 08:38:51;;;;;;;4.2;2;;;;;;;8;58.55859;948.9481;;;;
2021/11/06 08:41:18;;;;;;;3.9;2.1;;;;;;;6.95;59.93164;948.8408;;;;
2021/11/06 08:43:42;;;;;;;3;2.1;;;;;;;6.35;63.36523;948.8217;;;;
2021/11/06 08:46:08;;;;;;;3.3;2.2;;;;;;;5.7;67.11914;948.7941;;;;
2021/11/06 08:48:35;;;;;;;3;2.3;;;;;;;5.55;70.11914;948.8113;;;;
2021/11/06 08:51:01;;;;;;;4.6;2.3;;;;;;;5.64;69.35547;948.8102;;;;
2021/11/06 08:53:26;;;;;;;4.5;2;;;;;;;5.2;67.51367;948.8383;;;;
2021/11/06 08:55:51;;;;;;;5.4;2.5;;;;;;;5.15;68.9834;948.8794;;;;
2021/11/06 08:58:16;;;;;;;2.5;1.7;;;;;;;5.17;68.41211;948.8039;;;;
2021/11/06 09:00:42;;;;;;;2.2;1.6;;;;;;;5.23;66.66016;948.7829;;;;
2021/11/06 09:03:07;;;;;;;3.7;1.7;;;;;;;4.98;66.19434;948.8262;;;;
2021/11/06 09:05:33;;;;;;;2.1;1.6;;;;;;;5.3;66.86328;948.8699;;;;
2021/11/06 09:07:58;;;;;;;3;1.8;;;;;;;5.26;65.84277;948.8152;;;;
2021/11/06 09:10:23;;;;;;;3.7;1.6;;;;;;;5.28;64.12012;948.7593;;;;
2021/11/06 09:12:48;;;;;;;2.6;1.6;;;;;;;5.18;66.25879;948.8237;;;;
2021/11/06 09:15:13;;;;;;;2.1;1.6;;;;;;;5.37;65.90332;948.8217;;;;
2021/11/06 09:17:40;;;;;;;2.6;1.8;;;;;;;5.39;64.72266;948.6926;;;;
2021/11/06 09:20:05;;;;;;;2.3;1.6;;;;;;;5.24;63.05469;948.8777;;;;
2021/11/06 09:22:31;;;;;;;2;1.7;;;;;;;5.35;65.33887;948.9191;;;;
2021/11/06 09:24:56;;;;;;;17.1;2.3;;;;;;;5.68;64.05566;948.8663;;;;
2021/11/06 09:27:22;;;;;;;2.7;1.5;;;;;;;5.68;61.68457;948.7598;;;;
2021/11/06 09:29:47;;;;;;;3;1.9;;;;;;;5.75;62.61133;948.82;;;;
2021/11/06 09:32:13;;;;;;;1.6;1.3;;;;;;;5.79;61.3291;948.8159;;;;
2021/11/06 09:34:39;;;;;;;1.8;1.5;;;;;;;5.96;61.82813;948.7919;;;;
2021/11/06 09:37:04;;;;;;;2.4;1.3;;;;;;;6.23;61.18848;948.843;;;;
2021/11/06 09:39:30;;;;;;;2.1;1.3;;;;;;;6.55;58.34961;948.7837;;;;
2021/11/06 09:41:55;;;;;;;1.3;1.2;;;;;;;6.8;59.11816;948.7086;;;;
2021/11/06 09:44:21;;;;;;;1.8;1.4;;;;;;;6.99;58.03613;948.6685;;;;
2021/11/06 09:46:48;;;;;;;2;1.3;;;;;;;7;57.43652;948.7344;;;;
2021/11/06 09:49:13;;;;;;;9.5;2.5;;;;;;;6.86;57.74609;948.6662;;;;
2021/11/06 09:51:39;;;;;;;1.8;1.3;;;;;;;6.69;58.23242;948.6242;;;;
2021/11/06 09:54:04;;;;;;;3.3;1.5;;;;;;;6.61;60.28125;948.6497;;;;
2021/11/06 09:56:44;;;;;;;3.6;1.3;;;;;;;6.47;59.18652;948.6885;;;;
2021/11/06 09:59:11;;;;;;;2.8;1.2;;;;;;;6.73;59.87793;948.6558;;;;
2021/11/06 10:01:38;;;;;;;2;1.4;;;;;;;6.96;57.95215;948.6671;;;;
2021/11/06 10:04:07;;;;;;;1.1;1.1;;;;;;;8.12;56.08789;948.5744;;;;
2021/11/06 10:06:28;;;;;;;5.1;2.1;;;;;;;8.62;53.69727;948.5887;;;;
2021/11/06 10:08:53;;;;;;;2.5;1.5;;;;;;;8.8;53.17383;948.5652;;;;
2021/11/06 10:11:19;;;;;;;1.7;1.5;;;;;;;8.35;54.41406;948.5659;;;;
2021/11/06 10:13:45;;;;;;;3.9;1.6;;;;;;;8.8;54.99414;948.5356;;;;
2021/11/06 10:16:17;;;;;;;2.9;1.5;;;;;;;8.72;54.9043;948.5226;;;;
2021/11/06 10:18:35;;;;;;;1.9;1.5;;;;;;;8.4;54.37402;948.5162;;;;
2021/11/06 10:21:01;;;;;;;1.3;1.2;;;;;;;8.04;56.13477;948.4383;;;;
2021/11/06 10:23:26;;;;;;;1.4;1.3;;;;;;;7.8;56.4668;948.4752;;;;
2021/11/06 10:25:51;;;;;;;1.7;1.2;;;;;;;7.82;57.45605;948.4952;;;;
2021/11/06 10:28:16;;;;;;;2.3;1.3;;;;;;;7.79;57.13379;948.4897;;;;
2021/11/06 10:30:42;;;;;;;1.4;1.3;;;;;;;7.64;57.30566;948.3161;;;;
2021/11/06 10:33:09;;;;;;;2;1.2;;;;;;;7.75;57.16309;948.4192;;;;
2021/11/06 10:35:33;;;;;;;3.5;1.8;;;;;;;7.89;55.85352;948.3666;;;;
2021/11/06 10:37:59;;;;;;;1.5;1.3;;;;;;;8.04;55.29297;948.3073;;;;
2021/11/06 10:40:30;;;;;;;1.2;1.1;;;;;;;8.16;56.7627;948.2972;;;;
2021/11/06 10:42:49;;;;;;;2.3;1.5;;;;;;;7.96;57.12207;948.3225;;;;
2021/11/06 10:45:16;;;;;;;3.3;1.2;;;;;;;7.81;52.94922;948.3063;;;;
2021/11/06 10:47:41;;;;;;;1.8;1.2;;;;;;;8.01;54.66504;948.1559;;;;
2021/11/06 10:50:08;;;;;;;2.9;1.3;;;;;;;8.19;54.0293;948.1824;;;;
2021/11/06 10:52:31;;;;;;;1.7;1;;;;;;;8.26;54.48242;948.1526;;;;
2021/11/06 10:54:56;;;;;;;1.4;1.2;;;;;;;8.32;53.42188;948.0672;;;;
2021/11/06 10:57:23;;;;;;;2.6;1.2;;;;;;;8.31;51.28613;947.9885;;;;
2021/11/06 10:59:48;;;;;;;1.4;0.9;;;;;;;8.33;48.41406;947.9924;;;;
2021/11/06 11:02:14;;;;;;;1.1;1;;;;;;;8.32;51.04785;947.9894;;;;
2021/11/06 11:04:39;;;;;;;2.3;0.9;;;;;;;8.58;50.24805;947.9169;;;;
2021/11/06 11:07:05;;;;;;;2.5;1.1;;;;;;;8.59;49.93164;947.9394;;;;
2021/11/06 11:09:30;;;;;;;0.8;0.8;;;;;;;8.84;49.73242;947.9027;;;;
2021/11/06 11:11:56;;;;;;;1.7;1.2;;;;;;;8.92;51.29004;947.8823;;;;
2021/11/06 11:14:21;;;;;;;1.5;1.2;;;;;;;9.02;51.55273;947.8134;;;;
2021/11/06 11:16:46;;;;;;;1;0.9;;;;;;;8.98;48.40723;947.6782;;;;
2021/11/06 11:19:11;;;;;;;1.2;0.8;;;;;;;9.06;49.55273;947.723;;;;
2021/11/06 11:21:36;;;;;;;0.8;0.8;;;;;;;9.32;46.32813;947.7559;;;;
2021/11/06 11:24:01;;;;;;;1.3;0.8;;;;;;;9.55;48.19629;947.6942;;;;
2021/11/06 11:26:26;;;;;;;1.1;0.9;;;;;;;9.87;46.48828;947.5891;;;;
2021/11/06 11:28:51;;;;;;;1.1;0.9;;;;;;;10.14;45.60547;947.5981;;;;
2021/11/06 11:31:18;;;;;;;1.6;0.8;;;;;;;10.84;44.51465;947.5414;;;;
2021/11/06 11:33:43;;;;;;;1;0.9;;;;;;;13.39;39.99512;947.425;;;;
2021/11/06 11:36:10;;;;;;;1.2;1.1;;;;;;;15.81;35.08594;947.4324;;;;
2021/11/06 11:38:35;;;;;;;1.6;1.1;;;;;;;19.14;30.68359;947.4311;;;;
2021/11/06 11:41:00;;;;;;;0.6;0.6;;;;;;;21.26;27.625;947.355;;;;
2021/11/06 11:43:25;;;;;;;1.7;0.8;;;;;;;23.14;25.3457;947.2831;;;;
2021/11/06 11:45:53;;;;;;;0.8;0.6;;;;;;;25.33;22.49414;947.2585;;;;
2021/11/06 11:48:17;;;;;;;0.8;0.8;;;;;;;25.99;21.4043;947.2759;;;;
2021/11/06 11:50:43;;;;;;;0.9;0.8;;;;;;;24.6;22.46973;947.2958;;;;
2021/11/06 11:53:08;;;;;;;0.9;0.7;;;;;;;24.35;23.63574;947.3265;;;;
2021/11/06 11:55:33;;;;;;;0.7;0.7;;;;;;;24.95;22.0625;947.3035;;;;
2021/11/06 11:57:58;;;;;;;0.7;0.6;;;;;;;25.73;21.15527;947.2653;;;;
2021/11/06 12:00:23;;;;;;;0.9;0.8;;;;;;;26;21.57031;947.1956;;;;
2021/11/06 12:02:49;;;;;;;1.5;0.9;;;;;;;24.64;22.30664;947.2174;;;;
2021/11/06 12:05:16;;;;;;;0.7;0.6;;;;;;;25.59;21.62109;947.1039;;;;
2021/11/06 12:07:41;;;;;;;0.8;0.8;;;;;;;24.35;21.58496;947.1638;;;;
2021/11/06 12:10:06;;;;;;;1.4;0.8;;;;;;;25.48;20.12793;947.137;;;;
2021/11/06 12:12:31;;;;;;;0.7;0.6;;;;;;;25.23;20.8252;947.0516;;;;
2021/11/06 12:15:00;;;;;;;1.1;0.8;;;;;;;25.67;20.56152;947.0248;;;;
2021/11/06 12:17:24;;;;;;;1.4;0.6;;;;;;;27.31;19.48633;946.9878;;;;
2021/11/06 12:19:53;;;;;;;0.8;0.8;;;;;;;27.26;19.12793;946.9261;;;;
2021/11/06 12:22:17;;;;;;;0.5;0.5;;;;;;;27.64;18.95508;946.8643;;;;
2021/11/06 12:24:41;;;;;;;0.6;0.6;;;;;;;28.12;18.91602;946.8442;;;;
2021/11/06 12:27:06;;;;;;;0.8;0.8;;;;;;;28.44;18.12012;946.755;;;;
2021/11/06 12:29:32;;;;;;;0.8;0.7;;;;;;;30.03;17.03906;946.74;;;;
2021/11/06 12:31:59;;;;;;;0.9;0.9;;;;;;;29.27;17.73633;946.7488;;;;
2021/11/06 12:34:23;;;;;;;0.7;0.7;;;;;;;29.69;17.22852;946.7125;;;;
2021/11/06 12:36:48;;;;;;;0.6;0.6;;;;;;;30.02;16.91895;946.6519;;;;
2021/11/06 12:39:14;;;;;;;0.7;0.7;;;;;;;30.96;16.20117;946.6172;;;;
2021/11/06 12:41:39;;;;;;;1.1;0.7;;;;;;;30.95;16.4043;946.5566;;;;
2021/11/06 12:44:04;;;;;;;0.8;0.8;;;;;;;31.26;16.03223;946.6278;;;;
2021/11/06 12:46:29;;;;;;;0.7;0.7;;;;;;;30.38;16.47852;946.6404;;;;
2021/11/06 12:48:54;;;;;;;1.2;0.6;;;;;;;31.15;15.90918;946.6238;;;;
2021/11/06 12:51:20;;;;;;;0.9;0.8;;;;;;;28.38;18.61719;946.6562;;;;
2021/11/06 12:53:45;;;;;;;0.6;0.6;;;;;;;28.54;18.0293;946.6696;;;;
2021/11/06 12:56:14;;;;;;;0.8;0.7;;;;;;;28.52;18.0166;946.6328;;;;
2021/11/06 12:58:39;;;;;;;0.7;0.7;;;;;;;28.75;18.12109;946.6825;;;;
2021/11/06 13:01:04;;;;;;;1;0.7;;;;;;;30.12;16.98242;946.6088;;;;
2021/11/06 13:03:29;;;;;;;0.9;0.9;;;;;;;30.16;16.93652;946.6141;;;;
2021/11/06 13:05:54;;;;;;;1.1;1;;;;;;;29.72;17.39746;946.5556;;;;
2021/11/06 13:08:19;;;;;;;1.7;1;;;;;;;29.46;17.93555;946.5125;;;;
2021/11/06 13:10:46;;;;;;;1.1;0.9;;;;;;;26.73;19.93555;946.496;;;;
2021/11/06 13:13:10;;;;;;;0.9;0.9;;;;;;;25.38;21.6582;946.4878;;;;
2021/11/06 13:15:35;;;;;;;2.1;1.1;;;;;;;24.49;23.28906;946.4197;;;;
2021/11/06 13:18:00;;;;;;;0.9;0.9;;;;;;;24.15;23.62402;946.4878;;;;
2021/11/06 13:20:25;;;;;;;0.9;0.9;;;;;;;25.17;22.69922;946.4338;;;;
2021/11/06 13:22:56;;;;;;;1.2;1.1;;;;;;;23.83;24.19531;946.4514;;;;
2021/11/06 13:25:20;;;;;;;1.7;1.3;;;;;;;23.1;24.87305;946.4576;;;;
2021/11/06 13:27:46;;;;;;;1.5;1.4;;;;;;;21.98;27.02539;946.4656;;;;
2021/11/06 13:30:10;;;;;;;1.6;1.1;;;;;;;21.15;28.0166;946.4142;;;;
2021/11/06 13:32:35;;;;;;;1.1;1;;;;;;;21.61;27.12012;946.3689;;;;
2021/11/06 13:35:03;;;;;;;1.3;1.1;;;;;;;21.83;27.13379;946.3675;;;;
2021/11/06 13:37:27;;;;;;;1.9;1.1;;;;;;;23.8;24.4541;946.4022;;;;
2021/11/06 13:39:52;;;;;;;1;1;;;;;;;23.12;25.37891;946.4045;;;;
2021/11/06 13:42:17;;;;;;;1.1;1;;;;;;;23.69;24.24707;946.39;;;;
2021/11/06 13:44:42;;;;;;;1.2;1;;;;;;;23.2;24.36133;946.3145;;;;
2021/11/06 13:47:07;;;;;;;1;1;;;;;;;22.45;26.00977;946.3401;;;;
2021/11/06 13:49:39;;;;;;;1.5;1.2;;;;;;;22.65;26.0332;946.2733;;;;
2021/11/06 13:52:03;;;;;;;1.5;1.2;;;;;;;22.68;26.2002;946.3122;;;;
2021/11/06 13:54:27;;;;;;;1.5;1.3;;;;;;;23.7;24.57715;946.2946;;;;
2021/11/06 13:56:53;;;;;;;2;1.3;;;;;;;23.47;24.8584;946.3518;;;;
2021/11/06 13:59:18;;;;;;;1.5;1.4;;;;;;;22.73;25.70996;946.303;;;;
2021/11/06 14:01:43;;;;;;;1.8;1.5;;;;;;;21.87;26.69043;946.2936;;;;
2021/11/06 14:04:10;;;;;;;1.9;1.5;;;;;;;21.78;27.31738;946.2507;;;;
2021/11/06 14:06:36;;;;;;;1.4;1.3;;;;;;;21.73;27.37305;946.2662;;;;
2021/11/06 14:09:02;;;;;;;1.4;1.2;;;;;;;21.59;27.17676;946.3297;;;;
2021/11/06 14:11:27;;;;;;;1.3;1.2;;;;;;;20.39;28.77441;946.385;;;;
2021/11/06 14:13:52;;;;;;;2.1;1.6;;;;;;;19.41;30.5625;946.3505;;;;
2021/11/06 14:16:19;;;;;;;2;1.6;;;;;;;19.29;30.71777;946.4052;;;;
2021/11/06 14:18:46;;;;;;;1.5;1.3;;;;;;;18.71;31.80566;946.3762;;;;
2021/11/06 14:21:09;;;;;;;1.6;1.5;;;;;;;17.92;33.02637;946.3507;;;;
2021/11/06 14:23:34;;;;;;;1.5;1.4;;;;;;;17.5;33.91113;946.3591;;;;
2021/11/06 14:25:58;;;;;;;2.4;1.4;;;;;;;17.03;34.84766;946.3674;;;;
2021/11/06 14:28:23;;;;;;;2.2;1.3;;;;;;;16.08;36.20703;946.236;;;;
2021/11/06 14:30:50;;;;;;;1.5;1.3;;;;;;;16.05;36.57422;946.2569;;;;
2021/11/06 14:33:15;;;;;;;1.7;1.6;;;;;;;15.64;37.59082;946.322;;;;
2021/11/06 14:35:43;;;;;;;2.3;1.4;;;;;;;14.98;38.97656;946.3491;;;;
2021/11/06 14:38:05;;;;;;;1.7;1.4;;;;;;;14.44;40.65625;946.3635;;;;
2021/11/06 14:40:30;;;;;;;1.4;1.3;;;;;;;14.18;41.1377;946.3356;;;;
2021/11/06 14:42:56;;;;;;;1.9;1.2;;;;;;;13.93;41.93164;946.217;;;;
2021/11/06 14:45:21;;;;;;;4;1.6;;;;;;;13.63;42.55957;946.257;;;;